Hammond, LA (70401)

2:31 PM CST on December 04, 2016 (GMT -0600)
Audubon Lakes | | Change Station

Elev 32 ft 30.49 °N, 90.43 °W | Updated 23 seconds ago

Drizzle
Drizzle
63.1 °F
Feels Like 63.1 °F
N
0.9
Wind Variable Wind from NNE
Gusts 4.0 mph

Today
High -- | Low -- °F
--% Chance of Precip.
Yesterday
High -- | Low -- °F
Precip. -- in
Pressure 29.91 in
Visibility 5.0 miles
Clouds Overcast 400 ft
Dew Point 62 °F
Humidity 97%
Rainfall 0.43 in
Snow Depth Not available.
6:44 AM 5:00 PM
Waxing Crescent, 25% visible
METAR KHDC 042015Z AUTO 35008KT 5SM DZ OVC004 17/16 A2991 RMK AO2 P0001
Pressure 29.91 in
Visibility 5.0 miles
Clouds Overcast 400 ft
Dew Point 62 °F
Humidity 97%
Rainfall 0.43 in
Snow Depth Not available.
6:44 AM 5:00 PM
Waxing Crescent, 25% visible
METAR KHDC 042015Z AUTO 35008KT 5SM DZ OVC004 17/16 A2991 RMK AO2 P0001

10-Day Weather Forecast

Almanac

Astronomy

Dec. 04, 2016 Rise Set
Actual Time
Civil Twilight
Nautical Twilight
Astronomical Twilight
Moon
Length of Visible Light
Length of Day
Tomorrow will be .
, % of the Moon is Illuminated

Today's Extremes

State Highs State Lows

Community

WunderPhotos

Upload Photos

1,955,667 photos uploaded!

WunderBlog® & News

Nearby

Air Quality

  Air Quality AQ Index Pollutant
Not available.

Snow Depth

Station Depth Elevation

Earthquake Activity

City Distance Mag. Time & Date
Minimum magnitude displayed is 2.5.

Coastal Water Temperatures

Place Temperature

Stations

Nearby Weather Stations

Station Location Temp. Windchill Dew Point Humidity Wind Precip. Elev Updated Type
                   

Watches & Warnings

There are currently no watches in effect.